All Spectrum Aviation - Van Nuys Airport - KVNY

HOME

Condor Squadron KVNY Webcam

Visit our Electronics Store

Condor Squadron Webcam - Van Nuys Airport - KVNY
Picture taken: Thu, 22 Oct 2020 07:18:39 -0700
YouTube Channel!    Latest Timelapse Movie    Full Size Image    Regular Size Image    

2020/10/22 13:51 KVNY 221351Z 08003KT 5SM HZ OVC018 19/14 A2985 RMK AO2 SLP102 T01890139

HOME

Condor Squadron KVNY Webcam

Visit our Electronics Store